createdAt,value
2018-11-20T00:01:19.398Z,25.20
2018-11-20T00:04:13.446Z,25.73
2018-11-20T00:07:10.680Z,24.20
2018-11-20T00:09:56.287Z,23.50
2018-11-20T00:12:42.255Z,24.00
2018-11-20T00:15:29.461Z,24.40
2018-11-20T00:18:10.583Z,21.23
2018-11-20T00:20:55.069Z,23.83
2018-11-20T00:23:41.719Z,22.53
2018-11-20T00:26:41.927Z,26.10
2018-11-20T00:29:34.502Z,24.77
2018-11-20T00:32:13.843Z,26.60
2018-11-20T00:35:00.772Z,24.90
2018-11-20T00:37:40.061Z,25.83
2018-11-20T00:40:34.405Z,26.10
2018-11-20T00:43:22.529Z,25.33
2018-11-20T00:46:03.419Z,25.50
2018-11-20T00:48:50.671Z,25.03
2018-11-20T00:51:41.550Z,27.60
2018-11-20T00:54:47.924Z,30.27
2018-11-20T00:57:51.055Z,29.07
2018-11-20T01:00:34.008Z,27.40
2018-11-20T01:03:22.147Z,28.50
2018-11-20T01:06:05.883Z,31.30
2018-11-20T01:08:52.685Z,31.40
2018-11-20T01:11:42.733Z,33.40
2018-11-20T01:14:29.905Z,32.33
2018-11-20T01:17:20.973Z,35.27
2018-11-20T01:20:21.327Z,33.80
2018-11-20T01:23:21.938Z,30.80
2018-11-20T01:26:06.647Z,33.40
2018-11-20T01:28:53.444Z,36.30
2018-11-20T01:31:44.553Z,36.67
2018-11-20T01:34:34.813Z,36.43
2018-11-20T01:37:30.748Z,40.47
2018-11-20T01:40:23.426Z,39.97
2018-11-20T01:43:10.250Z,49.57
2018-11-20T01:46:04.220Z,43.90
2018-11-20T01:48:59.751Z,41.83
2018-11-20T01:51:46.059Z,43.43
2018-11-20T01:54:33.226Z,47.97
2018-11-20T01:57:30.377Z,48.73
2018-11-20T02:00:21.399Z,49.00
2018-11-20T02:03:08.409Z,49.73
2018-11-20T02:05:45.483Z,47.80
2018-11-20T02:08:32.571Z,49.97
2018-11-20T02:11:26.486Z,52.50
2018-11-20T02:14:14.378Z,46.80
2018-11-20T02:17:03.957Z,52.77
2018-11-20T02:19:55.028Z,46.80
2018-11-20T02:22:43.214Z,48.73
2018-11-20T02:25:34.560Z,49.83
2018-11-20T02:28:29.394Z,52.23
2018-11-20T02:31:09.666Z,50.53
2018-11-20T02:34:03.544Z,56.70
2018-11-20T02:36:51.685Z,54.30
2018-11-20T02:39:50.234Z,52.27
2018-11-20T02:42:33.089Z,48.87
2018-11-20T02:45:16.947Z,52.87
2018-11-20T02:48:00.079Z,52.70
2018-11-20T02:50:48.226Z,52.00
2018-11-20T02:53:35.105Z,49.27
2018-11-20T02:56:21.920Z,53.97
2018-11-20T02:59:19.086Z,53.27
2018-11-20T03:02:06.104Z,49.23
2018-11-20T03:04:56.798Z,52.80
2018-11-20T03:07:50.962Z,55.00
2018-11-20T03:10:48.065Z,52.17
2018-11-20T03:13:47.295Z,51.87
2018-11-20T03:16:34.031Z,50.20
2018-11-20T03:19:21.038Z,46.43
2018-11-20T03:22:08.313Z,40.37
2018-11-20T03:24:56.730Z,45.43
2018-11-20T03:27:39.766Z,48.37
2018-11-20T03:31:17.409Z,40.30
2018-11-20T03:34:10.433Z,42.57
2018-11-20T03:37:04.637Z,38.03
2018-11-20T03:39:51.288Z,37.40
2018-11-20T03:42:39.437Z,34.60
2018-11-20T03:45:42.830Z,32.00
2018-11-20T03:48:29.890Z,37.53
2018-11-20T03:51:20.704Z,33.90
2018-11-20T03:54:06.981Z,28.37
2018-11-20T03:56:45.037Z,31.13
2018-11-20T03:59:48.487Z,30.70
2018-11-20T04:02:39.979Z,30.00
2018-11-20T04:05:24.160Z,26.97
2018-11-20T04:08:11.057Z,31.17
2018-11-20T04:11:05.164Z,33.73
2018-11-20T04:13:40.926Z,32.77
2018-11-20T04:16:35.010Z,30.23
2018-11-20T04:19:22.883Z,39.67
2018-11-20T04:22:22.862Z,40.10
2018-11-20T04:25:13.725Z,33.10
2018-11-20T04:27:55.999Z,30.23
2018-11-20T04:31:20.146Z,35.90
2018-11-20T04:34:00.733Z,37.30
2018-11-20T04:36:50.726Z,39.43
2018-11-20T04:39:30.051Z,34.47
2018-11-20T04:42:16.762Z,30.87
2018-11-20T04:45:07.571Z,37.20
2018-11-20T04:47:50.414Z,37.00
2018-11-20T04:50:42.055Z,37.03
2018-11-20T04:53:29.035Z,46.73
2018-11-20T04:56:15.924Z,39.50
2018-11-20T04:59:15.357Z,38.00
2018-11-20T05:02:12.042Z,39.53
2018-11-20T05:04:59.078Z,36.93
2018-11-20T05:07:40.279Z,41.53
2018-11-20T05:10:40.594Z,39.53
2018-11-20T05:13:28.849Z,39.90
2018-11-20T05:16:31.961Z,36.83
2018-11-20T05:19:23.245Z,37.27
2018-11-20T05:22:14.010Z,37.50
2018-11-20T05:24:52.731Z,40.23
2018-11-20T05:27:34.128Z,39.17
2018-11-20T05:33:28.598Z,50.90
2018-11-20T05:36:24.696Z,44.67
2018-11-20T05:39:02.228Z,40.97
2018-11-20T05:41:49.541Z,44.57
2018-11-20T05:44:39.810Z,45.43
2018-11-20T05:47:21.123Z,46.47
2018-11-20T05:50:11.438Z,45.70
2018-11-20T05:53:04.144Z,43.47
2018-11-20T05:55:48.015Z,42.47
2018-11-20T05:58:23.276Z,41.30
2018-11-20T06:01:10.629Z,51.77
2018-11-20T06:03:59.367Z,43.80
2018-11-20T06:06:55.454Z,46.00
2018-11-20T06:10:00.706Z,40.90
2018-11-20T06:12:43.378Z,41.43
2018-11-20T06:15:36.823Z,38.90
2018-11-20T06:18:33.068Z,45.10
2018-11-20T06:21:27.939Z,43.17
2018-11-20T06:24:13.785Z,36.23
2018-11-20T06:27:04.560Z,41.17
2018-11-20T06:29:50.705Z,44.83
2018-11-20T06:32:41.611Z,43.60
2018-11-20T06:35:19.332Z,43.47
2018-11-20T06:37:55.517Z,40.77
2018-11-20T06:40:35.858Z,41.87
2018-11-20T06:43:22.094Z,42.00
2018-11-20T06:46:00.114Z,38.00
2018-11-20T06:48:48.102Z,39.77
2018-11-20T06:51:38.880Z,37.47
2018-11-20T06:54:24.889Z,39.17
2018-11-20T06:57:03.763Z,46.27
2018-11-20T06:59:50.074Z,37.90
2018-11-20T07:02:36.212Z,41.07
2018-11-20T07:05:22.819Z,40.83
2018-11-20T07:08:16.730Z,39.23
2018-11-20T07:11:09.708Z,36.43
2018-11-20T07:14:18.374Z,38.10
2018-11-20T07:17:09.302Z,36.90
2018-11-20T07:20:09.385Z,34.63
2018-11-20T07:22:55.490Z,36.30
2018-11-20T07:25:43.129Z,34.30
2018-11-20T07:28:28.971Z,35.77
2018-11-20T07:31:26.730Z,35.07
2018-11-20T07:34:09.082Z,36.20
2018-11-20T07:37:08.440Z,37.87
2018-11-20T07:39:55.576Z,33.17
2018-11-20T07:42:33.147Z,38.77
2018-11-20T07:45:18.858Z,36.67
2018-11-20T07:48:04.535Z,35.00
2018-11-20T07:50:45.662Z,36.50
2018-11-20T07:53:31.561Z,42.10
2018-11-20T07:56:25.412Z,40.87
2018-11-20T07:59:21.644Z,37.40
2018-11-20T08:02:07.588Z,36.20
2018-11-20T08:04:43.565Z,41.30
2018-11-20T08:07:43.017Z,39.97
2018-11-20T08:10:39.061Z,39.20
2018-11-20T08:13:35.693Z,36.53
2018-11-20T08:16:16.639Z,37.03
2018-11-20T08:19:04.133Z,37.07
2018-11-20T08:21:57.193Z,37.57
2018-11-20T08:24:50.920Z,35.50
2018-11-20T08:27:41.108Z,36.80
2018-11-20T08:30:35.425Z,35.40
2018-11-20T08:33:21.556Z,36.50
2018-11-20T08:36:01.350Z,33.50
2018-11-20T08:38:49.416Z,36.70
2018-11-20T08:41:42.981Z,36.77
2018-11-20T08:44:36.188Z,38.10
2018-11-20T08:47:35.581Z,36.53
2018-11-20T08:50:21.476Z,35.83
2018-11-20T08:53:14.642Z,35.50
2018-11-20T08:56:00.485Z,34.87
2018-11-20T08:58:56.923Z,36.00
2018-11-20T09:01:42.715Z,41.90
2018-11-20T09:04:42.368Z,32.60
2018-11-20T09:07:35.542Z,41.40
2018-11-20T09:10:21.426Z,31.60
2018-11-20T09:13:16.980Z,36.47
2018-11-20T09:16:04.325Z,37.00
2018-11-20T09:18:46.094Z,32.83
2018-11-20T09:21:36.236Z,34.40
2018-11-20T09:27:18.109Z,34.17
2018-11-20T09:30:14.475Z,35.50
2018-11-20T09:33:07.594Z,35.73
2018-11-20T09:36:03.615Z,36.70
2018-11-20T09:38:58.433Z,34.40
2018-11-20T09:41:51.819Z,38.73
2018-11-20T09:44:50.853Z,36.30
2018-11-20T09:47:36.151Z,42.30
2018-11-20T09:50:24.841Z,34.27
2018-11-20T09:53:10.405Z,34.13
2018-11-20T09:55:53.467Z,43.83
2018-11-20T09:58:47.566Z,39.97
2018-11-20T10:01:38.582Z,39.13
2018-11-20T10:04:21.918Z,35.67
2018-11-20T10:07:02.128Z,40.93
2018-11-20T10:09:58.680Z,40.20
2018-11-20T10:12:44.587Z,41.57
2018-11-20T10:15:32.225Z,38.23
2018-11-20T10:18:20.871Z,46.90
2018-11-20T10:21:23.744Z,36.30
2018-11-20T10:24:20.123Z,40.37
2018-11-20T10:27:07.641Z,36.13
2018-11-20T10:29:53.548Z,42.33
2018-11-20T10:32:39.823Z,41.00
2018-11-20T10:35:27.910Z,37.00
2018-11-20T10:38:16.652Z,36.23
2018-11-20T10:41:22.214Z,36.57
2018-11-20T10:44:08.417Z,36.60
2018-11-20T10:47:01.452Z,39.97
2018-11-20T10:49:47.500Z,36.30
2018-11-20T10:52:34.947Z,41.23
2018-11-20T10:55:21.083Z,36.47
2018-11-20T10:58:04.828Z,35.23
2018-11-20T11:00:51.156Z,39.50
2018-11-20T11:03:26.952Z,40.40
2018-11-20T11:06:12.860Z,39.23
2018-11-20T11:08:43.573Z,39.80
2018-11-20T11:11:33.033Z,38.10
2018-11-20T11:14:20.321Z,37.90
2018-11-20T11:17:16.464Z,39.20
2018-11-20T11:20:02.643Z,37.77
2018-11-20T11:22:53.146Z,36.07
2018-11-20T11:25:40.448Z,40.90
2018-11-20T11:28:26.249Z,37.83
2018-11-20T11:31:24.858Z,40.20
2018-11-20T11:34:21.090Z,39.83
2018-11-20T11:37:14.628Z,34.00
2018-11-20T11:40:05.750Z,36.97
2018-11-20T11:43:02.999Z,38.07
2018-11-20T11:45:50.378Z,34.00
2018-11-20T11:48:49.633Z,33.83
2018-11-20T11:51:35.907Z,34.33
2018-11-20T11:54:17.475Z,33.13
2018-11-20T11:57:03.819Z,28.73
2018-11-20T11:59:54.118Z,31.63
2018-11-20T12:05:21.571Z,34.90
2018-11-20T12:08:24.218Z,37.50
2018-11-20T12:11:10.317Z,38.17
2018-11-20T12:14:12.599Z,37.33
2018-11-20T12:17:04.976Z,34.07
2018-11-20T12:19:41.664Z,41.33
2018-11-20T12:22:31.140Z,38.80
2018-11-20T12:25:18.453Z,38.63
2018-11-20T12:28:05.813Z,37.00
2018-11-20T12:31:05.086Z,41.80
2018-11-20T12:33:55.719Z,34.13
2018-11-20T12:36:42.048Z,35.40
2018-11-20T12:39:28.147Z,33.47
2018-11-20T12:42:06.930Z,39.83
2018-11-20T12:45:03.326Z,32.43
2018-11-20T12:47:49.848Z,36.50
2018-11-20T12:50:42.195Z,31.60
2018-11-20T12:53:28.683Z,34.80
2018-11-20T12:56:17.465Z,34.53
2018-11-20T12:59:03.514Z,34.17
2018-11-20T13:01:42.284Z,32.60
2018-11-20T13:04:25.695Z,31.33
2018-11-20T13:07:11.804Z,33.80
2018-11-20T13:09:58.080Z,35.47
2018-11-20T13:12:38.571Z,32.00
2018-11-20T13:15:25.394Z,33.03
2018-11-20T13:18:15.450Z,34.00
2018-11-20T13:20:54.345Z,36.10
2018-11-20T13:23:40.363Z,42.57
2018-11-20T13:26:18.405Z,34.83
2018-11-20T13:29:11.610Z,33.03
2018-11-20T13:32:00.045Z,35.87
2018-11-20T13:34:38.308Z,36.20
2018-11-20T13:37:18.237Z,31.23
2018-11-20T13:40:01.736Z,37.77
2018-11-20T13:42:43.480Z,33.97
2018-11-20T13:45:18.639Z,35.20
2018-11-20T13:48:05.358Z,31.43
2018-11-20T13:51:01.355Z,35.03
2018-11-20T13:53:48.688Z,32.60
2018-11-20T13:56:38.520Z,33.20
2018-11-20T13:59:28.400Z,32.57
2018-11-20T14:02:14.340Z,37.70
2018-11-20T14:05:00.563Z,35.43
2018-11-20T14:07:59.850Z,37.97
2018-11-20T14:10:35.761Z,37.20
2018-11-20T14:13:35.222Z,37.63
2018-11-20T14:16:11.464Z,41.17
2018-11-20T14:18:52.420Z,41.27
2018-11-20T14:21:51.881Z,39.13
2018-11-20T14:24:57.566Z,42.50
2018-11-20T14:27:44.862Z,38.40
2018-11-20T14:30:30.705Z,37.83
2018-11-20T14:33:18.830Z,42.00
2018-11-20T14:36:09.187Z,34.97
2018-11-20T14:38:49.206Z,35.20
2018-11-20T14:41:51.376Z,40.00
2018-11-20T14:44:37.849Z,37.87
2018-11-20T14:47:33.092Z,39.17
2018-11-20T14:50:19.045Z,42.93
2018-11-20T14:52:56.798Z,45.03
2018-11-20T14:55:43.454Z,46.03
2018-11-20T14:58:21.500Z,42.77
2018-11-20T15:01:08.118Z,47.03
2018-11-20T15:03:54.017Z,43.07
2018-11-20T15:06:30.091Z,40.30
2018-11-20T15:09:16.151Z,48.90
2018-11-20T15:12:09.573Z,43.57
2018-11-20T15:14:59.092Z,55.20
2018-11-20T15:17:47.674Z,45.23
2018-11-20T15:20:34.984Z,56.50
2018-11-20T15:23:19.627Z,52.60
2018-11-20T15:26:12.890Z,50.40
2018-11-20T15:28:58.735Z,49.60
2018-11-20T15:31:45.045Z,52.37
2018-11-20T15:34:41.483Z,51.77
2018-11-20T15:37:23.932Z,49.27
2018-11-20T15:40:09.890Z,49.00
2018-11-20T15:42:56.139Z,48.00
2018-11-20T15:45:37.204Z,51.87
2018-11-20T15:48:30.996Z,49.83
2018-11-20T15:51:21.351Z,49.40
2018-11-20T15:54:04.237Z,49.97
2018-11-20T15:56:49.943Z,47.30
2018-11-20T15:59:36.837Z,44.33
2018-11-20T16:02:36.461Z,48.13
2018-11-20T16:05:23.175Z,43.53
2018-11-20T16:08:16.354Z,49.13
2018-11-20T16:10:57.805Z,39.63
2018-11-20T16:13:39.761Z,37.97
2018-11-20T16:16:24.825Z,39.80
2018-11-20T16:19:11.076Z,36.47
2018-11-20T16:21:58.386Z,34.93
2018-11-20T16:24:44.251Z,39.53
2018-11-20T16:27:21.734Z,41.13
2018-11-20T16:30:01.746Z,40.93
2018-11-20T16:32:47.683Z,36.73
2018-11-20T16:35:33.892Z,43.40
2018-11-20T16:38:19.506Z,38.07
2018-11-20T16:41:12.780Z,41.10
2018-11-20T16:43:58.897Z,37.90
2018-11-20T16:46:57.885Z,42.20
2018-11-20T16:49:44.261Z,40.00
2018-11-20T16:52:25.179Z,43.45
2018-11-20T16:55:12.506Z,38.20
2018-11-20T16:58:05.832Z,38.90
2018-11-20T17:01:00.793Z,41.13
2018-11-20T17:03:48.109Z,41.40
2018-11-20T17:06:47.606Z,41.17
2018-11-20T17:09:39.492Z,40.30
2018-11-20T17:12:14.896Z,41.37
2018-11-20T17:14:57.376Z,40.13
2018-11-20T17:17:44.463Z,46.73
2018-11-20T17:20:30.577Z,39.80
2018-11-20T17:23:15.361Z,43.57
2018-11-20T17:26:05.938Z,38.30
2018-11-20T17:28:53.295Z,42.60
2018-11-20T17:31:39.642Z,42.60
2018-11-20T17:34:34.706Z,46.23
2018-11-20T17:37:16.818Z,48.53
2018-11-20T17:40:06.755Z,42.47
2018-11-20T17:42:52.812Z,49.03
2018-11-20T17:45:28.202Z,43.70
2018-11-20T17:48:15.559Z,44.50
2018-11-20T17:51:01.360Z,45.97
2018-11-20T17:53:54.421Z,48.80
2018-11-20T17:56:42.191Z,51.33
2018-11-20T17:59:17.538Z,54.47
2018-11-20T18:02:04.843Z,50.27
2018-11-20T18:04:45.315Z,50.50
2018-11-20T18:07:39.358Z,53.83
2018-11-20T18:10:26.023Z,56.00
2018-11-20T18:13:19.195Z,52.90
2018-11-20T18:16:02.492Z,54.43
2018-11-20T18:18:41.042Z,60.60
2018-11-20T18:21:39.919Z,53.67
2018-11-20T18:24:35.997Z,62.53
2018-11-20T18:27:29.223Z,55.43
2018-11-20T18:30:07.559Z,60.73
2018-11-20T18:33:07.036Z,56.70
2018-11-20T18:36:00.307Z,56.50
2018-11-20T18:38:44.903Z,63.40
2018-11-20T18:41:30.796Z,59.63
2018-11-20T18:44:08.347Z,56.10
2018-11-20T18:46:54.394Z,61.60
2018-11-20T18:49:48.788Z,55.47
2018-11-20T18:52:28.150Z,58.60
2018-11-20T18:55:17.748Z,56.83
2018-11-20T18:57:57.845Z,58.50
2018-11-20T19:00:39.656Z,59.63
2018-11-20T19:03:29.214Z,63.10
2018-11-20T19:06:14.929Z,49.93
2018-11-20T19:09:02.260Z,53.23
2018-11-20T19:11:48.624Z,51.43
2018-11-20T19:14:48.952Z,53.13
2018-11-20T19:17:35.143Z,55.33
2018-11-20T19:20:11.723Z,48.53
2018-11-20T19:23:14.362Z,59.03
2018-11-20T19:26:02.097Z,57.17
2018-11-20T19:28:52.157Z,53.37
2018-11-20T19:31:41.597Z,54.20
2018-11-20T19:34:31.864Z,54.20
2018-11-20T19:37:13.522Z,60.00
2018-11-20T19:40:01.182Z,57.37
2018-11-20T19:42:47.568Z,55.60
2018-11-20T19:45:33.870Z,55.10
2018-11-20T19:48:20.121Z,52.63
2018-11-20T19:51:08.248Z,56.33
2018-11-20T19:53:52.042Z,55.80
2018-11-20T19:56:38.859Z,54.70
2018-11-20T19:59:28.828Z,52.53
2018-11-20T20:02:19.531Z,52.47
2018-11-20T20:05:05.726Z,54.80
2018-11-20T20:07:58.999Z,58.17
2018-11-20T20:10:58.036Z,61.37
2018-11-20T20:13:51.147Z,56.77
2018-11-20T20:16:45.382Z,54.20
2018-11-20T20:19:31.271Z,52.83
2018-11-20T20:22:34.037Z,60.27
2018-11-20T20:25:24.472Z,60.63
2018-11-20T20:28:20.832Z,66.90
2018-11-20T20:31:08.621Z,58.83
2018-11-20T20:33:54.714Z,62.00
2018-11-20T20:36:51.225Z,60.07
2018-11-20T20:39:31.635Z,70.60
2018-11-20T20:42:33.870Z,72.43
2018-11-20T20:45:11.909Z,61.67
2018-11-20T20:47:58.567Z,62.03
2018-11-20T20:50:40.317Z,61.07
2018-11-20T20:53:36.579Z,66.07
2018-11-20T20:56:24.535Z,66.53
2018-11-20T20:59:04.640Z,63.13
2018-11-20T21:01:45.071Z,59.03
2018-11-20T21:04:45.442Z,70.37
2018-11-20T21:07:30.724Z,66.50
2018-11-20T21:10:19.985Z,72.03
2018-11-20T21:13:05.758Z,72.60
2018-11-20T21:15:51.682Z,67.73
2018-11-20T21:18:32.742Z,64.47
2018-11-20T21:21:20.253Z,72.63
2018-11-20T21:24:10.065Z,79.23
2018-11-20T21:26:48.283Z,76.83
2018-11-20T21:29:34.473Z,67.00
2018-11-20T21:32:40.079Z,70.13
2018-11-20T21:35:27.380Z,67.47
2018-11-20T21:38:09.934Z,70.77
2018-11-20T21:40:55.792Z,65.00
2018-11-20T21:43:43.410Z,70.93
2018-11-20T21:46:29.460Z,67.03
2018-11-20T21:49:35.063Z,73.27
2018-11-20T21:52:22.807Z,71.20
2018-11-20T21:55:02.814Z,70.60
2018-11-20T21:57:59.428Z,66.50
2018-11-20T22:01:16.098Z,82.70
2018-11-20T22:04:02.254Z,67.53
2018-11-20T22:06:51.764Z,71.50
2018-11-20T22:09:38.257Z,66.10
2018-11-20T22:12:24.336Z,74.47
2018-11-20T22:15:18.243Z,68.00
2018-11-20T22:18:04.650Z,74.90
2018-11-20T22:20:51.242Z,67.73
2018-11-20T22:23:37.536Z,73.47
2018-11-20T22:26:34.391Z,73.87
2018-11-20T22:29:20.509Z,66.57
2018-11-20T22:32:08.262Z,75.60
2018-11-20T22:34:54.279Z,70.50
2018-11-20T22:37:40.922Z,61.03
2018-11-20T22:40:26.997Z,71.07
2018-11-20T22:43:13.237Z,68.23
2018-11-20T22:46:03.953Z,68.37
2018-11-20T22:49:00.177Z,62.93
2018-11-20T22:51:43.541Z,65.90
2018-11-20T22:54:54.788Z,65.77
2018-11-20T22:57:40.635Z,72.07
2018-11-20T23:00:29.645Z,66.73
2018-11-20T23:03:25.900Z,64.40
2018-11-20T23:06:00.255Z,68.43
2018-11-20T23:08:28.511Z,66.73
2018-11-20T23:10:56.630Z,61.07
2018-11-20T23:13:24.746Z,58.20
2018-11-20T23:15:52.875Z,65.00
2018-11-20T23:18:21.806Z,66.93
2018-11-20T23:20:49.910Z,60.10
2018-11-20T23:23:18.128Z,69.97
2018-11-20T23:25:46.285Z,61.57
2018-11-20T23:28:15.228Z,60.40
2018-11-20T23:30:43.416Z,62.13
2018-11-20T23:33:13.200Z,66.77
2018-11-20T23:35:42.497Z,59.27
2018-11-20T23:38:11.775Z,63.33
2018-11-20T23:40:39.889Z,60.93
2018-11-20T23:43:08.009Z,68.30
2018-11-20T23:45:37.060Z,64.33
2018-11-20T23:48:05.151Z,64.60
2018-11-20T23:50:34.095Z,58.77
2018-11-20T23:53:02.283Z,65.03
2018-11-20T23:55:30.420Z,66.07
2018-11-20T23:57:59.316Z,59.77
